sensor_id;sensor_type;location;lat;lon;timestamp;P1;durP1;ratioP1;P2;durP2;ratioP2
80227;SDS011;69539;42.138;24.742;2023-04-24T00:00:13;2.38;;;2.17;;
80227;SDS011;69539;42.138;24.742;2023-04-24T00:02:40;2.22;;;2.03;;
80227;SDS011;69539;42.138;24.742;2023-04-24T00:05:11;2.95;;;2.40;;
80227;SDS011;69539;42.138;24.742;2023-04-24T00:07:39;2.50;;;2.30;;
80227;SDS011;69539;42.138;24.742;2023-04-24T00:10:05;2.65;;;2.45;;
80227;SDS011;69539;42.138;24.742;2023-04-24T00:12:32;2.50;;;2.30;;
80227;SDS011;69539;42.138;24.742;2023-04-24T00:14:58;3.75;;;2.47;;
80227;SDS011;69539;42.138;24.742;2023-04-24T00:17:23;2.53;;;2.30;;
80227;SDS011;69539;42.138;24.742;2023-04-24T00:19:49;2.83;;;2.40;;
80227;SDS011;69539;42.138;24.742;2023-04-24T00:22:23;2.45;;;2.25;;
80227;SDS011;69539;42.138;24.742;2023-04-24T00:24:50;3.22;;;2.30;;
80227;SDS011;69539;42.138;24.742;2023-04-24T00:27:15;2.83;;;2.28;;
80227;SDS011;69539;42.138;24.742;2023-04-24T00:29:41;3.15;;;2.33;;
80227;SDS011;69539;42.138;24.742;2023-04-24T00:32:06;2.75;;;2.30;;
80227;SDS011;69539;42.138;24.742;2023-04-24T00:34:32;2.40;;;2.20;;
80227;SDS011;69539;42.138;24.742;2023-04-24T00:36:58;2.30;;;2.10;;
80227;SDS011;69539;42.138;24.742;2023-04-24T00:39:24;3.03;;;2.13;;
80227;SDS011;69539;42.138;24.742;2023-04-24T00:41:50;2.45;;;2.25;;
80227;SDS011;69539;42.138;24.742;2023-04-24T00:44:16;2.50;;;2.30;;
80227;SDS011;69539;42.138;24.742;2023-04-24T00:46:42;2.13;;;2.03;;
80227;SDS011;69539;42.138;24.742;2023-04-24T00:49:07;3.13;;;2.25;;
80227;SDS011;69539;42.138;24.742;2023-04-24T00:51:33;2.60;;;2.40;;
80227;SDS011;69539;42.138;24.742;2023-04-24T00:54:02;2.63;;;2.38;;
80227;SDS011;69539;42.138;24.742;2023-04-24T00:56:28;2.65;;;2.45;;
80227;SDS011;69539;42.138;24.742;2023-04-24T00:58:54;3.22;;;2.50;;
80227;SDS011;69539;42.138;24.742;2023-04-24T01:01:20;3.10;;;2.38;;
80227;SDS011;69539;42.138;24.742;2023-04-24T01:03:47;2.60;;;2.40;;
80227;SDS011;69539;42.138;24.742;2023-04-24T01:06:18;2.50;;;2.30;;
80227;SDS011;69539;42.138;24.742;2023-04-24T01:08:45;2.60;;;2.40;;
80227;SDS011;69539;42.138;24.742;2023-04-24T01:11:12;2.37;;;2.17;;
80227;SDS011;69539;42.138;24.742;2023-04-24T01:13:38;2.47;;;2.28;;
80227;SDS011;69539;42.138;24.742;2023-04-24T01:16:05;2.80;;;2.40;;
80227;SDS011;69539;42.138;24.742;2023-04-24T01:18:31;2.63;;;2.35;;
80227;SDS011;69539;42.138;24.742;2023-04-24T01:20:57;2.50;;;2.22;;
80227;SDS011;69539;42.138;24.742;2023-04-24T01:23:23;2.65;;;2.20;;
80227;SDS011;69539;42.138;24.742;2023-04-24T01:25:52;2.50;;;2.30;;
80227;SDS011;69539;42.138;24.742;2023-04-24T01:28:18;2.40;;;2.20;;
80227;SDS011;69539;42.138;24.742;2023-04-24T01:30:44;2.40;;;2.20;;
80227;SDS011;69539;42.138;24.742;2023-04-24T01:33:10;2.60;;;2.40;;
80227;SDS011;69539;42.138;24.742;2023-04-24T01:35:37;2.50;;;2.30;;
80227;SDS011;69539;42.138;24.742;2023-04-24T01:38:05;2.88;;;2.55;;
80227;SDS011;69539;42.138;24.742;2023-04-24T01:40:31;2.53;;;2.33;;
80227;SDS011;69539;42.138;24.742;2023-04-24T01:43:00;2.50;;;2.30;;
80227;SDS011;69539;42.138;24.742;2023-04-24T01:45:25;2.88;;;2.40;;
80227;SDS011;69539;42.138;24.742;2023-04-24T01:47:51;2.42;;;2.22;;
80227;SDS011;69539;42.138;24.742;2023-04-24T01:50:17;2.53;;;2.33;;
80227;SDS011;69539;42.138;24.742;2023-04-24T01:52:43;2.60;;;2.40;;
80227;SDS011;69539;42.138;24.742;2023-04-24T01:55:09;4.40;;;3.17;;
80227;SDS011;69539;42.138;24.742;2023-04-24T01:57:35;2.65;;;2.45;;
80227;SDS011;69539;42.138;24.742;2023-04-24T02:00:02;2.72;;;2.53;;
80227;SDS011;69539;42.138;24.742;2023-04-24T02:02:29;3.00;;;2.67;;
80227;SDS011;69539;42.138;24.742;2023-04-24T02:04:57;2.55;;;2.35;;
80227;SDS011;69539;42.138;24.742;2023-04-24T02:07:23;2.88;;;2.40;;
80227;SDS011;69539;42.138;24.742;2023-04-24T02:09:49;2.70;;;2.50;;
80227;SDS011;69539;42.138;24.742;2023-04-24T02:12:15;3.67;;;2.50;;
80227;SDS011;69539;42.138;24.742;2023-04-24T02:14:42;2.47;;;2.27;;
80227;SDS011;69539;42.138;24.742;2023-04-24T02:17:08;2.60;;;2.40;;
80227;SDS011;69539;42.138;24.742;2023-04-24T02:19:34;2.80;;;2.38;;
80227;SDS011;69539;42.138;24.742;2023-04-24T02:22:00;3.63;;;2.80;;
80227;SDS011;69539;42.138;24.742;2023-04-24T02:24:26;2.97;;;2.50;;
80227;SDS011;69539;42.138;24.742;2023-04-24T02:26:51;2.70;;;2.38;;
80227;SDS011;69539;42.138;24.742;2023-04-24T02:29:17;3.05;;;2.40;;
80227;SDS011;69539;42.138;24.742;2023-04-24T02:31:43;2.90;;;2.40;;
80227;SDS011;69539;42.138;24.742;2023-04-24T02:34:08;2.97;;;2.50;;
80227;SDS011;69539;42.138;24.742;2023-04-24T02:36:34;3.63;;;2.42;;
80227;SDS011;69539;42.138;24.742;2023-04-24T02:39:00;2.60;;;2.40;;
80227;SDS011;69539;42.138;24.742;2023-04-24T02:41:26;2.90;;;2.30;;
80227;SDS011;69539;42.138;24.742;2023-04-24T02:43:56;2.53;;;2.33;;
80227;SDS011;69539;42.138;24.742;2023-04-24T02:46:22;2.85;;;2.58;;
80227;SDS011;69539;42.138;24.742;2023-04-24T02:48:48;3.05;;;2.58;;
80227;SDS011;69539;42.138;24.742;2023-04-24T02:51:14;2.67;;;2.45;;
80227;SDS011;69539;42.138;24.742;2023-04-24T02:53:42;2.60;;;2.40;;
80227;SDS011;69539;42.138;24.742;2023-04-24T02:56:08;3.03;;;2.50;;
80227;SDS011;69539;42.138;24.742;2023-04-24T02:58:33;2.85;;;2.50;;
80227;SDS011;69539;42.138;24.742;2023-04-24T03:01:00;2.63;;;2.42;;
80227;SDS011;69539;42.138;24.742;2023-04-24T03:03:26;2.90;;;2.60;;
80227;SDS011;69539;42.138;24.742;2023-04-24T03:05:52;3.15;;;2.30;;
80227;SDS011;69539;42.138;24.742;2023-04-24T03:08:17;2.60;;;2.40;;
80227;SDS011;69539;42.138;24.742;2023-04-24T03:10:43;3.45;;;2.75;;
80227;SDS011;69539;42.138;24.742;2023-04-24T03:13:09;2.75;;;2.40;;
80227;SDS011;69539;42.138;24.742;2023-04-24T03:15:34;3.38;;;2.70;;
80227;SDS011;69539;42.138;24.742;2023-04-24T03:18:00;3.60;;;2.65;;
80227;SDS011;69539;42.138;24.742;2023-04-24T03:20:28;3.40;;;2.60;;
80227;SDS011;69539;42.138;24.742;2023-04-24T03:22:56;3.92;;;2.78;;
80227;SDS011;69539;42.138;24.742;2023-04-24T03:25:22;3.17;;;2.70;;
80227;SDS011;69539;42.138;24.742;2023-04-24T03:27:48;2.83;;;2.53;;
80227;SDS011;69539;42.138;24.742;2023-04-24T03:30:13;2.78;;;2.58;;
80227;SDS011;69539;42.138;24.742;2023-04-24T03:32:39;2.60;;;2.40;;
80227;SDS011;69539;42.138;24.742;2023-04-24T03:35:06;3.28;;;2.72;;
80227;SDS011;69539;42.138;24.742;2023-04-24T03:39:58;4.53;;;2.38;;
80227;SDS011;69539;42.138;24.742;2023-04-24T03:42:27;3.40;;;2.80;;
80227;SDS011;69539;42.138;24.742;2023-04-24T03:44:52;3.38;;;2.75;;
80227;SDS011;69539;42.138;24.742;2023-04-24T03:47:18;3.08;;;2.70;;
80227;SDS011;69539;42.138;24.742;2023-04-24T03:49:43;3.13;;;2.83;;
80227;SDS011;69539;42.138;24.742;2023-04-24T03:52:09;2.80;;;2.50;;
80227;SDS011;69539;42.138;24.742;2023-04-24T03:54:35;2.78;;;2.50;;
80227;SDS011;69539;42.138;24.742;2023-04-24T03:57:01;3.33;;;2.30;;
80227;SDS011;69539;42.138;24.742;2023-04-24T03:59:26;2.72;;;2.53;;
80227;SDS011;69539;42.138;24.742;2023-04-24T04:01:52;2.90;;;2.47;;
80227;SDS011;69539;42.138;24.742;2023-04-24T04:04:18;2.83;;;2.40;;
80227;SDS011;69539;42.138;24.742;2023-04-24T04:06:43;5.05;;;3.40;;
80227;SDS011;69539;42.138;24.742;2023-04-24T04:09:09;11.13;;;5.80;;
80227;SDS011;69539;42.138;24.742;2023-04-24T04:11:35;10.75;;;6.43;;
80227;SDS011;69539;42.138;24.742;2023-04-24T04:14:01;12.25;;;6.95;;
80227;SDS011;69539;42.138;24.742;2023-04-24T04:16:28;11.23;;;7.45;;
80227;SDS011;69539;42.138;24.742;2023-04-24T04:18:54;9.32;;;7.22;;
80227;SDS011;69539;42.138;24.742;2023-04-24T04:21:20;12.40;;;8.10;;
80227;SDS011;69539;42.138;24.742;2023-04-24T04:23:46;10.90;;;7.53;;
80227;SDS011;69539;42.138;24.742;2023-04-24T04:26:11;10.70;;;7.00;;
80227;SDS011;69539;42.138;24.742;2023-04-24T04:28:38;11.40;;;7.03;;
80227;SDS011;69539;42.138;24.742;2023-04-24T04:31:04;9.40;;;7.05;;
80227;SDS011;69539;42.138;24.742;2023-04-24T04:33:30;11.43;;;6.50;;
80227;SDS011;69539;42.138;24.742;2023-04-24T04:35:56;13.55;;;6.55;;
80227;SDS011;69539;42.138;24.742;2023-04-24T04:38:22;11.00;;;7.28;;
80227;SDS011;69539;42.138;24.742;2023-04-24T04:40:48;11.90;;;7.03;;
80227;SDS011;69539;42.138;24.742;2023-04-24T04:43:13;11.30;;;7.50;;
80227;SDS011;69539;42.138;24.742;2023-04-24T04:45:42;12.93;;;8.23;;
80227;SDS011;69539;42.138;24.742;2023-04-24T04:48:08;10.80;;;7.70;;
80227;SDS011;69539;42.138;24.742;2023-04-24T04:50:39;12.07;;;7.55;;
80227;SDS011;69539;42.138;24.742;2023-04-24T04:53:05;10.68;;;7.65;;
80227;SDS011;69539;42.138;24.742;2023-04-24T04:55:31;9.98;;;7.57;;
80227;SDS011;69539;42.138;24.742;2023-04-24T04:57:59;9.57;;;7.65;;
80227;SDS011;69539;42.138;24.742;2023-04-24T05:02:52;10.50;;;7.30;;
80227;SDS011;69539;42.138;24.742;2023-04-24T05:05:17;13.25;;;7.93;;
80227;SDS011;69539;42.138;24.742;2023-04-24T05:07:43;10.75;;;7.45;;
80227;SDS011;69539;42.138;24.742;2023-04-24T05:10:09;13.85;;;7.63;;
80227;SDS011;69539;42.138;24.742;2023-04-24T05:12:35;14.45;;;8.32;;
80227;SDS011;69539;42.138;24.742;2023-04-24T05:15:01;14.45;;;8.68;;
80227;SDS011;69539;42.138;24.742;2023-04-24T05:17:29;11.40;;;8.68;;
80227;SDS011;69539;42.138;24.742;2023-04-24T05:19:55;10.05;;;7.75;;
80227;SDS011;69539;42.138;24.742;2023-04-24T05:22:21;14.55;;;8.00;;
80227;SDS011;69539;42.138;24.742;2023-04-24T05:24:47;16.90;;;8.18;;
80227;SDS011;69539;42.138;24.742;2023-04-24T05:27:13;13.10;;;7.80;;
80227;SDS011;69539;42.138;24.742;2023-04-24T05:29:39;10.13;;;7.38;;
80227;SDS011;69539;42.138;24.742;2023-04-24T05:32:09;10.90;;;7.80;;
80227;SDS011;69539;42.138;24.742;2023-04-24T05:34:35;11.07;;;7.65;;
80227;SDS011;69539;42.138;24.742;2023-04-24T05:37:01;15.93;;;7.25;;
80227;SDS011;69539;42.138;24.742;2023-04-24T05:39:27;11.57;;;7.25;;
80227;SDS011;69539;42.138;24.742;2023-04-24T05:41:53;13.90;;;7.70;;
80227;SDS011;69539;42.138;24.742;2023-04-24T05:44:20;13.25;;;7.55;;
80227;SDS011;69539;42.138;24.742;2023-04-24T05:46:48;10.77;;;7.50;;
80227;SDS011;69539;42.138;24.742;2023-04-24T05:49:14;14.15;;;7.40;;
80227;SDS011;69539;42.138;24.742;2023-04-24T05:51:39;10.77;;;7.10;;
80227;SDS011;69539;42.138;24.742;2023-04-24T05:54:06;17.02;;;7.40;;
80227;SDS011;69539;42.138;24.742;2023-04-24T05:56:32;10.40;;;7.10;;
80227;SDS011;69539;42.138;24.742;2023-04-24T05:58:57;11.68;;;6.47;;
80227;SDS011;69539;42.138;24.742;2023-04-24T06:01:23;12.68;;;6.85;;
80227;SDS011;69539;42.138;24.742;2023-04-24T06:03:50;12.20;;;6.75;;
80227;SDS011;69539;42.138;24.742;2023-04-24T06:06:15;10.75;;;6.88;;
80227;SDS011;69539;42.138;24.742;2023-04-24T06:08:44;17.30;;;6.68;;
80227;SDS011;69539;42.138;24.742;2023-04-24T06:11:10;10.65;;;6.45;;
80227;SDS011;69539;42.138;24.742;2023-04-24T06:13:38;11.73;;;6.40;;
80227;SDS011;69539;42.138;24.742;2023-04-24T06:16:04;10.05;;;7.05;;
80227;SDS011;69539;42.138;24.742;2023-04-24T06:18:30;11.55;;;5.88;;
80227;SDS011;69539;42.138;24.742;2023-04-24T06:20:55;12.57;;;5.35;;
80227;SDS011;69539;42.138;24.742;2023-04-24T06:23:23;10.32;;;5.32;;
80227;SDS011;69539;42.138;24.742;2023-04-24T06:25:49;10.70;;;5.22;;
80227;SDS011;69539;42.138;24.742;2023-04-24T06:28:15;8.98;;;5.00;;
80227;SDS011;69539;42.138;24.742;2023-04-24T06:33:08;9.63;;;5.30;;
80227;SDS011;69539;42.138;24.742;2023-04-24T06:35:35;8.77;;;4.90;;
80227;SDS011;69539;42.138;24.742;2023-04-24T06:38:01;8.35;;;4.72;;
80227;SDS011;69539;42.138;24.742;2023-04-24T06:40:27;9.38;;;4.97;;
80227;SDS011;69539;42.138;24.742;2023-04-24T06:42:52;7.93;;;4.75;;
80227;SDS011;69539;42.138;24.742;2023-04-24T06:45:18;9.65;;;4.93;;
80227;SDS011;69539;42.138;24.742;2023-04-24T06:47:44;7.03;;;4.43;;
80227;SDS011;69539;42.138;24.742;2023-04-24T06:50:09;7.90;;;4.72;;
80227;SDS011;69539;42.138;24.742;2023-04-24T06:52:36;8.27;;;4.68;;
80227;SDS011;69539;42.138;24.742;2023-04-24T06:55:02;10.25;;;4.50;;
80227;SDS011;69539;42.138;24.742;2023-04-24T06:57:28;9.25;;;5.20;;
80227;SDS011;69539;42.138;24.742;2023-04-24T06:59:54;9.20;;;5.03;;
80227;SDS011;69539;42.138;24.742;2023-04-24T07:02:20;8.68;;;5.28;;
80227;SDS011;69539;42.138;24.742;2023-04-24T07:04:46;6.63;;;4.78;;
80227;SDS011;69539;42.138;24.742;2023-04-24T07:07:12;8.07;;;4.97;;
80227;SDS011;69539;42.138;24.742;2023-04-24T07:09:39;7.15;;;4.95;;
80227;SDS011;69539;42.138;24.742;2023-04-24T07:12:09;6.88;;;4.38;;
80227;SDS011;69539;42.138;24.742;2023-04-24T07:14:35;9.05;;;4.35;;
80227;SDS011;69539;42.138;24.742;2023-04-24T07:17:02;7.30;;;4.93;;
80227;SDS011;69539;42.138;24.742;2023-04-24T07:19:29;8.10;;;4.90;;
80227;SDS011;69539;42.138;24.742;2023-04-24T07:21:54;7.57;;;5.00;;
80227;SDS011;69539;42.138;24.742;2023-04-24T07:24:20;10.50;;;4.70;;
80227;SDS011;69539;42.138;24.742;2023-04-24T07:26:46;8.45;;;4.93;;
80227;SDS011;69539;42.138;24.742;2023-04-24T07:29:12;8.90;;;4.60;;
80227;SDS011;69539;42.138;24.742;2023-04-24T07:31:38;6.45;;;4.00;;
80227;SDS011;69539;42.138;24.742;2023-04-24T07:34:06;6.05;;;4.40;;
80227;SDS011;69539;42.138;24.742;2023-04-24T07:36:32;6.60;;;4.25;;
80227;SDS011;69539;42.138;24.742;2023-04-24T07:38:58;6.63;;;4.57;;
80227;SDS011;69539;42.138;24.742;2023-04-24T07:41:24;8.48;;;4.40;;
80227;SDS011;69539;42.138;24.742;2023-04-24T07:43:50;7.93;;;4.82;;
80227;SDS011;69539;42.138;24.742;2023-04-24T07:46:16;7.20;;;4.43;;
80227;SDS011;69539;42.138;24.742;2023-04-24T07:48:41;6.60;;;4.40;;
80227;SDS011;69539;42.138;24.742;2023-04-24T07:51:07;7.60;;;4.38;;
80227;SDS011;69539;42.138;24.742;2023-04-24T07:56:01;8.93;;;4.68;;
80227;SDS011;69539;42.138;24.742;2023-04-24T07:58:27;8.02;;;4.50;;
80227;SDS011;69539;42.138;24.742;2023-04-24T08:00:52;7.63;;;4.30;;
80227;SDS011;69539;42.138;24.742;2023-04-24T08:03:18;7.63;;;5.13;;
80227;SDS011;69539;42.138;24.742;2023-04-24T08:05:45;7.18;;;4.82;;
80227;SDS011;69539;42.138;24.742;2023-04-24T08:08:11;7.00;;;4.68;;
80227;SDS011;69539;42.138;24.742;2023-04-24T08:10:36;5.88;;;4.40;;
80227;SDS011;69539;42.138;24.742;2023-04-24T08:13:02;7.57;;;4.22;;
80227;SDS011;69539;42.138;24.742;2023-04-24T08:17:57;6.00;;;4.10;;
80227;SDS011;69539;42.138;24.742;2023-04-24T08:20:22;6.40;;;4.45;;
80227;SDS011;69539;42.138;24.742;2023-04-24T08:22:48;7.22;;;4.50;;
80227;SDS011;69539;42.138;24.742;2023-04-24T08:25:14;5.10;;;4.10;;
80227;SDS011;69539;42.138;24.742;2023-04-24T08:27:40;5.30;;;4.22;;
80227;SDS011;69539;42.138;24.742;2023-04-24T08:30:06;7.35;;;4.53;;
80227;SDS011;69539;42.138;24.742;2023-04-24T08:32:32;6.25;;;4.25;;
80227;SDS011;69539;42.138;24.742;2023-04-24T08:34:58;5.68;;;4.43;;
80227;SDS011;69539;42.138;24.742;2023-04-24T08:37:25;5.78;;;4.00;;
